createdAt,value
2023-01-13T00:00:17.361Z,81.5
2023-01-13T00:01:16.815Z,81.3
2023-01-13T00:02:16.528Z,81.4
2023-01-13T00:03:17.056Z,81.4
2023-01-13T00:04:16.504Z,81.5
2023-01-13T00:05:16.962Z,81.5
2023-01-13T00:06:17.430Z,81.4
2023-01-13T00:07:16.888Z,81.4
2023-01-13T00:08:17.332Z,81.4
2023-01-13T00:09:16.788Z,81.3
2023-01-13T00:10:17.301Z,81.4
2023-01-13T00:11:16.816Z,81.1
2023-01-13T00:12:16.648Z,81.0
2023-01-13T00:13:17.089Z,81.0
2023-01-13T00:14:16.568Z,81.3
2023-01-13T00:15:17.030Z,81.1
2023-01-13T00:16:16.614Z,81.2
2023-01-13T00:17:17.099Z,81.3
2023-01-13T00:18:16.554Z,81.2
2023-01-13T00:19:17.050Z,81.4
2023-01-13T00:20:16.535Z,81.2
2023-01-13T00:21:16.999Z,81.4
2023-01-13T00:22:16.589Z,81.4
2023-01-13T00:23:17.030Z,81.7
2023-01-13T00:24:16.491Z,82.2
2023-01-13T00:25:16.948Z,82.1
2023-01-13T00:26:17.397Z,82.0
2023-01-13T00:27:16.869Z,82.3
2023-01-13T00:28:17.352Z,82.5
2023-01-13T00:29:16.854Z,82.7
2023-01-13T00:30:17.353Z,82.7
2023-01-13T00:31:16.956Z,82.9
2023-01-13T00:32:16.914Z,83.3
2023-01-13T00:33:17.362Z,83.1
2023-01-13T00:34:16.817Z,83.4
2023-01-13T00:35:17.303Z,83.5
2023-01-13T00:36:16.790Z,83.7
2023-01-13T00:37:17.267Z,84.0
2023-01-13T00:38:16.705Z,83.9
2023-01-13T00:39:17.156Z,83.8
2023-01-13T00:40:16.616Z,84.2
2023-01-13T00:41:17.089Z,84.4
2023-01-13T00:42:16.837Z,84.5
2023-01-13T00:43:17.284Z,84.4
2023-01-13T00:44:16.728Z,84.0
2023-01-13T00:45:17.234Z,84.1
2023-01-13T00:46:16.983Z,84.3
2023-01-13T00:47:16.479Z,84.7
2023-01-13T00:48:16.915Z,84.7
2023-01-13T00:49:17.355Z,84.7
2023-01-13T00:50:16.812Z,84.6
2023-01-13T00:51:17.269Z,84.7
2023-01-13T00:52:17.099Z,84.6
2023-01-13T00:53:16.539Z,84.5
2023-01-13T00:54:16.987Z,83.9
2023-01-13T00:55:16.445Z,83.6
2023-01-13T00:56:22.082Z,83.5
2023-01-13T00:57:16.723Z,83.6
2023-01-13T00:58:17.169Z,83.5
2023-01-13T00:59:16.612Z,83.3
2023-01-13T01:00:17.061Z,83.3
2023-01-13T01:01:16.858Z,82.7
2023-01-13T01:02:16.878Z,82.5
2023-01-13T01:03:17.441Z,83.1
2023-01-13T01:04:16.893Z,82.8
2023-01-13T01:05:17.386Z,82.6
2023-01-13T01:06:16.833Z,82.8
2023-01-13T01:07:17.299Z,82.6
2023-01-13T01:08:16.827Z,82.8
2023-01-13T01:09:17.296Z,83.2
2023-01-13T01:10:16.751Z,82.8
2023-01-13T01:11:17.228Z,82.9
2023-01-13T01:12:16.803Z,82.8
2023-01-13T01:13:17.258Z,82.8
2023-01-13T01:14:16.716Z,82.4
2023-01-13T01:15:17.203Z,82.4
2023-01-13T01:16:16.868Z,82.0
2023-01-13T01:17:17.366Z,82.4
2023-01-13T01:18:16.827Z,82.6
2023-01-13T01:19:17.263Z,82.4
2023-01-13T01:20:16.716Z,82.5
2023-01-13T01:21:17.189Z,82.3
2023-01-13T01:22:16.970Z,82.2
2023-01-13T01:23:16.463Z,82.2
2023-01-13T01:24:17.008Z,82.0
2023-01-13T01:25:16.463Z,82.1
2023-01-13T01:26:16.937Z,82.4
2023-01-13T01:27:17.422Z,82.1
2023-01-13T01:28:16.869Z,82.2
2023-01-13T01:29:17.348Z,82.1
2023-01-13T01:30:16.821Z,81.9
2023-01-13T01:31:17.381Z,81.8
2023-01-13T01:32:16.576Z,81.8
2023-01-13T01:33:17.062Z,81.9
2023-01-13T01:34:16.542Z,81.8
2023-01-13T01:35:16.989Z,81.9
2023-01-13T01:36:16.453Z,81.6
2023-01-13T01:37:16.895Z,81.4
2023-01-13T01:38:17.345Z,81.5
2023-01-13T01:39:16.827Z,81.7
2023-01-13T01:40:17.441Z,81.7
2023-01-13T01:41:16.917Z,81.6
2023-01-13T01:42:16.499Z,81.5
2023-01-13T01:43:16.947Z,81.6
2023-01-13T01:44:17.402Z,81.5
2023-01-13T01:45:16.850Z,81.4
2023-01-13T01:46:17.373Z,81.4
2023-01-13T01:47:16.812Z,81.2
2023-01-13T01:48:17.282Z,81.3
2023-01-13T01:49:16.750Z,81.5
2023-01-13T01:50:17.236Z,81.4
2023-01-13T01:51:16.749Z,81.1
2023-01-13T01:52:17.048Z,81.1
2023-01-13T01:53:16.527Z,81.1
2023-01-13T01:54:16.985Z,81.1
2023-01-13T01:55:16.442Z,81.3
2023-01-13T01:56:16.893Z,81.2
2023-01-13T01:57:17.338Z,81.2
2023-01-13T01:58:16.813Z,81.1
2023-01-13T01:59:17.259Z,81.4
2023-01-13T02:00:16.739Z,81.4
2023-01-13T02:01:17.423Z,81.3
2023-01-13T02:02:16.979Z,81.2
2023-01-13T02:03:16.463Z,81.5
2023-01-13T02:04:16.916Z,81.3
2023-01-13T02:05:17.416Z,81.5
2023-01-13T02:06:16.873Z,81.7
2023-01-13T02:07:17.305Z,81.5
2023-01-13T02:08:16.752Z,81.5
2023-01-13T02:09:17.200Z,81.4
2023-01-13T02:10:16.680Z,81.5
2023-01-13T02:11:17.178Z,81.5
2023-01-13T02:12:16.978Z,81.6
2023-01-13T02:13:16.448Z,81.5
2023-01-13T02:14:16.881Z,81.4
2023-01-13T02:15:17.340Z,81.5
2023-01-13T02:16:16.927Z,81.8
2023-01-13T02:17:17.411Z,81.7
2023-01-13T02:18:16.945Z,81.6
2023-01-13T02:19:17.379Z,81.6
2023-01-13T02:20:16.849Z,81.8
2023-01-13T02:21:17.299Z,81.9
2023-01-13T02:22:16.915Z,81.8
2023-01-13T02:23:17.371Z,81.7
2023-01-13T02:24:16.838Z,81.7
2023-01-13T02:25:17.434Z,81.6
2023-01-13T02:26:17.096Z,81.7
2023-01-13T02:27:16.784Z,81.8
2023-01-13T02:28:17.504Z,81.7
2023-01-13T02:29:17.018Z,81.6
2023-01-13T02:30:16.460Z,81.6
2023-01-13T02:31:17.012Z,81.6
2023-01-13T02:32:16.477Z,81.7
2023-01-13T02:33:16.924Z,81.6
2023-01-13T02:34:17.399Z,81.7
2023-01-13T02:35:16.844Z,81.7
2023-01-13T02:36:17.282Z,81.8
2023-01-13T02:37:16.763Z,81.8
2023-01-13T02:38:17.235Z,82.0
2023-01-13T02:39:16.686Z,81.8
2023-01-13T02:40:17.170Z,81.9
2023-01-13T02:41:16.650Z,82.1
2023-01-13T02:42:16.613Z,81.8
2023-01-13T02:43:17.045Z,81.6
2023-01-13T02:44:16.487Z,81.7
2023-01-13T02:45:16.934Z,81.8
2023-01-13T02:46:17.381Z,81.7
2023-01-13T02:47:16.845Z,81.5
2023-01-13T02:48:17.286Z,81.5
2023-01-13T02:49:16.730Z,81.5
2023-01-13T02:50:17.191Z,81.5
2023-01-13T02:51:16.665Z,81.6
2023-01-13T02:52:17.145Z,81.6
2023-01-13T02:53:16.647Z,81.6
2023-01-13T02:54:17.115Z,81.7
2023-01-13T02:55:16.563Z,81.8
2023-01-13T02:56:17.011Z,81.6
2023-01-13T02:57:16.465Z,81.5
2023-01-13T02:58:16.919Z,81.6
2023-01-13T02:59:17.371Z,81.6
2023-01-13T03:00:16.870Z,81.6
2023-01-13T03:01:17.611Z,81.5
2023-01-13T03:02:17.259Z,81.6
2023-01-13T03:03:16.839Z,81.6
2023-01-13T03:04:17.340Z,81.7
2023-01-13T03:05:16.845Z,81.4
2023-01-13T03:06:17.405Z,81.5
2023-01-13T03:07:16.941Z,81.5
2023-01-13T03:08:17.441Z,81.7
2023-01-13T03:09:16.941Z,81.6
2023-01-13T03:10:17.513Z,81.5
2023-01-13T03:11:17.009Z,81.6
2023-01-13T03:12:17.187Z,81.6
2023-01-13T03:13:16.679Z,81.8
2023-01-13T03:14:17.195Z,81.9
2023-01-13T03:15:16.691Z,82.0
2023-01-13T03:16:17.260Z,81.9
2023-01-13T03:17:16.741Z,82.0
2023-01-13T03:18:17.255Z,82.1
2023-01-13T03:19:16.793Z,82.2
2023-01-13T03:20:17.329Z,82.2
2023-01-13T03:21:16.864Z,82.5
2023-01-13T03:22:17.360Z,82.7
2023-01-13T03:23:16.884Z,82.6
2023-01-13T03:24:17.446Z,82.7
2023-01-13T03:25:16.944Z,82.9
2023-01-13T03:26:17.454Z,82.9
2023-01-13T03:27:16.915Z,82.7
2023-01-13T03:28:17.390Z,82.7
2023-01-13T03:29:16.910Z,82.9
2023-01-13T03:30:17.440Z,82.9
2023-01-13T03:31:17.002Z,82.7
2023-01-13T03:32:16.598Z,82.6
2023-01-13T03:33:17.117Z,82.5
2023-01-13T03:34:16.625Z,82.5
2023-01-13T03:35:17.129Z,82.4
2023-01-13T03:36:16.652Z,82.3
2023-01-13T03:37:17.153Z,82.0
2023-01-13T03:38:16.670Z,82.0
2023-01-13T03:39:17.164Z,81.9
2023-01-13T03:40:16.650Z,81.9
2023-01-13T03:41:17.187Z,82.2
2023-01-13T03:42:16.596Z,82.1
2023-01-13T03:43:17.071Z,82.1
2023-01-13T03:44:16.582Z,82.0
2023-01-13T03:45:17.113Z,81.9
2023-01-13T03:46:16.725Z,82.0
2023-01-13T03:47:17.225Z,82.0
2023-01-13T03:48:16.737Z,81.9
2023-01-13T03:49:17.250Z,81.8
2023-01-13T03:50:16.756Z,81.7
2023-01-13T03:51:17.274Z,82.1
2023-01-13T03:52:16.989Z,82.2
2023-01-13T03:53:16.475Z,82.1
2023-01-13T03:54:16.979Z,82.2
2023-01-13T03:55:16.505Z,82.3
2023-01-13T03:56:17.058Z,82.3
2023-01-13T03:57:16.585Z,82.2
2023-01-13T03:58:17.163Z,82.0
2023-01-13T03:59:16.819Z,82.0
2023-01-13T04:00:17.366Z,81.9
2023-01-13T04:01:17.100Z,81.8
2023-01-13T04:02:16.957Z,81.8
2023-01-13T04:03:17.481Z,81.8
2023-01-13T04:04:16.993Z,81.8
2023-01-13T04:05:16.504Z,81.8
2023-01-13T04:06:17.046Z,81.8
2023-01-13T04:07:16.573Z,81.5
2023-01-13T04:08:17.051Z,81.7
2023-01-13T04:09:16.587Z,81.5
2023-01-13T04:10:17.109Z,81.6
2023-01-13T04:11:16.643Z,81.6
2023-01-13T04:12:17.043Z,81.7
2023-01-13T04:13:16.565Z,81.8
2023-01-13T04:14:17.068Z,81.7
2023-01-13T04:15:16.571Z,82.0
2023-01-13T04:16:17.061Z,81.9
2023-01-13T04:17:16.600Z,82.0
2023-01-13T04:18:17.137Z,82.0
2023-01-13T04:19:16.650Z,82.0
2023-01-13T04:20:17.153Z,82.1
2023-01-13T04:21:16.631Z,82.0
2023-01-13T04:22:16.535Z,81.8
2023-01-13T04:23:17.021Z,81.9
2023-01-13T04:24:16.526Z,82.0
2023-01-13T04:25:17.073Z,82.1
2023-01-13T04:26:16.582Z,82.2
2023-01-13T04:27:17.087Z,82.2
2023-01-13T04:28:16.625Z,82.4
2023-01-13T04:29:17.188Z,82.4
2023-01-13T04:30:16.727Z,82.5
2023-01-13T04:31:17.313Z,82.5
2023-01-13T04:32:16.749Z,82.6
2023-01-13T04:33:17.297Z,82.7
2023-01-13T04:34:16.799Z,82.5
2023-01-13T04:35:17.324Z,82.4
2023-01-13T04:36:16.863Z,82.4
2023-01-13T04:37:17.376Z,82.4
2023-01-13T04:38:16.911Z,82.4
2023-01-13T04:39:17.393Z,82.2
2023-01-13T04:40:16.923Z,82.3
2023-01-13T04:41:17.452Z,82.4
2023-01-13T04:42:17.055Z,82.3
2023-01-13T04:43:16.599Z,82.3
2023-01-13T04:44:17.110Z,82.4
2023-01-13T04:45:16.602Z,82.5
2023-01-13T04:46:17.194Z,82.6
2023-01-13T04:47:16.745Z,82.4
2023-01-13T04:48:17.249Z,82.4
2023-01-13T04:49:16.738Z,82.5
2023-01-13T04:50:17.228Z,82.5
2023-01-13T04:51:16.789Z,82.5
2023-01-13T04:52:17.183Z,82.6
2023-01-13T04:53:16.679Z,82.4
2023-01-13T04:54:17.184Z,82.4
2023-01-13T04:55:16.686Z,82.4
2023-01-13T04:56:17.219Z,82.5
2023-01-13T04:57:16.742Z,82.6
2023-01-13T04:58:17.246Z,82.5
2023-01-13T04:59:16.747Z,82.5
2023-01-13T05:00:17.240Z,82.4
2023-01-13T05:01:17.038Z,82.5
2023-01-13T05:02:16.598Z,82.6
2023-01-13T05:03:17.119Z,82.6
2023-01-13T05:04:16.633Z,82.8
2023-01-13T05:05:17.115Z,82.5
2023-01-13T05:06:16.644Z,82.5
2023-01-13T05:07:17.143Z,82.5
2023-01-13T05:08:16.651Z,82.7
2023-01-13T05:09:17.168Z,82.7
2023-01-13T05:10:16.692Z,82.7
2023-01-13T05:11:17.163Z,82.7
2023-01-13T05:12:16.517Z,82.5
2023-01-13T05:13:16.997Z,82.6
2023-01-13T05:14:16.515Z,82.7
2023-01-13T05:15:17.039Z,82.7
2023-01-13T05:16:16.629Z,82.8
2023-01-13T05:17:17.138Z,82.9
2023-01-13T05:18:16.625Z,82.9
2023-01-13T05:19:17.137Z,82.9
2023-01-13T05:20:16.667Z,82.9
2023-01-13T05:21:17.180Z,82.9
2023-01-13T05:22:17.398Z,83.0
2023-01-13T05:23:16.904Z,82.9
2023-01-13T05:24:17.390Z,83.0
2023-01-13T05:25:16.908Z,83.1
2023-01-13T05:26:17.405Z,83.0
2023-01-13T05:27:16.897Z,83.2
2023-01-13T05:28:17.426Z,83.2
2023-01-13T05:29:16.923Z,83.2
2023-01-13T05:30:17.472Z,83.3
2023-01-13T05:31:17.028Z,83.1
2023-01-13T05:32:16.589Z,83.1
2023-01-13T05:33:17.090Z,83.3
2023-01-13T05:34:16.590Z,83.4
2023-01-13T05:35:17.097Z,83.5
2023-01-13T05:36:16.619Z,83.4
2023-01-13T05:37:17.118Z,83.4
2023-01-13T05:38:16.603Z,83.3
2023-01-13T05:39:17.118Z,83.4
2023-01-13T05:40:16.615Z,83.5
2023-01-13T05:41:17.125Z,83.4
2023-01-13T05:42:16.901Z,83.4
2023-01-13T05:43:17.422Z,83.6
2023-01-13T05:44:16.918Z,83.6
2023-01-13T05:45:17.441Z,83.7
2023-01-13T05:46:17.169Z,83.7
2023-01-13T05:47:16.709Z,83.5
2023-01-13T05:48:17.213Z,83.5
2023-01-13T05:49:16.750Z,83.4
2023-01-13T05:50:17.268Z,83.3
2023-01-13T05:51:16.768Z,83.2
2023-01-13T05:52:16.574Z,83.3
2023-01-13T05:53:17.084Z,83.5
2023-01-13T05:54:16.623Z,83.3
2023-01-13T05:55:17.117Z,83.3
2023-01-13T05:56:16.619Z,83.2
2023-01-13T05:57:17.128Z,83.3
2023-01-13T05:58:16.628Z,83.4
2023-01-13T05:59:17.149Z,83.4
2023-01-13T06:00:16.692Z,83.4
2023-01-13T06:01:17.404Z,83.4
2023-01-13T06:02:16.652Z,83.3
2023-01-13T06:03:17.217Z,83.3
2023-01-13T06:04:16.862Z,83.2
2023-01-13T06:05:17.451Z,83.2
2023-01-13T06:06:16.958Z,83.2
2023-01-13T06:07:17.470Z,83.3
2023-01-13T06:08:17.004Z,83.4
2023-01-13T06:09:16.509Z,83.4
2023-01-13T06:10:17.040Z,83.3
2023-01-13T06:11:16.538Z,83.4
2023-01-13T06:12:17.256Z,83.5
2023-01-13T06:13:16.758Z,83.5
2023-01-13T06:14:17.223Z,83.6
2023-01-13T06:15:16.726Z,83.6
2023-01-13T06:16:17.433Z,83.6
2023-01-13T06:17:16.963Z,83.7
2023-01-13T06:18:16.451Z,83.7
2023-01-13T06:19:16.933Z,83.9
2023-01-13T06:20:17.496Z,83.7
2023-01-13T06:21:17.004Z,83.6
2023-01-13T06:22:16.533Z,83.5
2023-01-13T06:23:17.065Z,83.7
2023-01-13T06:24:16.588Z,83.5
2023-01-13T06:25:17.352Z,83.4
2023-01-13T06:26:17.109Z,83.5
2023-01-13T06:27:16.675Z,83.4
2023-01-13T06:28:17.185Z,83.3
2023-01-13T06:29:16.681Z,83.3
2023-01-13T06:30:17.188Z,83.3
2023-01-13T06:31:16.734Z,83.3
2023-01-13T06:32:17.085Z,83.3
2023-01-13T06:33:16.587Z,83.3
2023-01-13T06:34:17.104Z,83.3
2023-01-13T06:35:16.606Z,83.5
2023-01-13T06:36:17.249Z,83.5
2023-01-13T06:37:16.754Z,83.4
2023-01-13T06:38:17.259Z,83.4
2023-01-13T06:39:16.767Z,83.2
2023-01-13T06:40:17.279Z,83.1
2023-01-13T06:41:16.792Z,83.2
2023-01-13T06:42:17.193Z,83.2
2023-01-13T06:43:17.684Z,83.3
2023-01-13T06:44:17.278Z,83.3
2023-01-13T06:45:16.760Z,83.3
2023-01-13T06:46:17.340Z,83.2
2023-01-13T06:47:16.882Z,83.1
2023-01-13T06:48:17.384Z,83.1
2023-01-13T06:49:16.888Z,82.8
2023-01-13T06:50:17.452Z,82.9
2023-01-13T06:51:16.940Z,82.8
2023-01-13T06:52:16.564Z,82.8
2023-01-13T06:53:17.184Z,82.9
2023-01-13T06:54:16.730Z,82.9
2023-01-13T06:55:17.210Z,82.6
2023-01-13T06:56:16.708Z,82.7
2023-01-13T06:57:17.192Z,82.8
2023-01-13T06:58:16.710Z,82.9
2023-01-13T06:59:17.220Z,82.8
2023-01-13T07:00:16.760Z,82.8
2023-01-13T07:01:17.669Z,82.9
2023-01-13T07:02:17.148Z,82.9
2023-01-13T07:03:16.639Z,82.8
2023-01-13T07:04:17.132Z,82.7
2023-01-13T07:05:16.669Z,82.8
2023-01-13T07:06:17.207Z,82.8
2023-01-13T07:07:16.708Z,82.7
2023-01-13T07:08:17.219Z,82.7
2023-01-13T07:09:16.706Z,82.7
2023-01-13T07:10:17.203Z,82.7
2023-01-13T07:11:16.719Z,82.7
2023-01-13T07:12:16.533Z,82.6
2023-01-13T07:13:17.059Z,82.6
2023-01-13T07:14:16.568Z,82.4
2023-01-13T07:15:17.086Z,82.6
2023-01-13T07:16:16.826Z,82.5
2023-01-13T07:17:17.372Z,82.3
2023-01-13T07:18:16.857Z,82.4
2023-01-13T07:19:17.329Z,82.4
2023-01-13T07:20:16.803Z,82.4
2023-01-13T07:21:17.326Z,82.5
2023-01-13T07:22:16.903Z,82.4
2023-01-13T07:23:17.419Z,82.5
2023-01-13T07:24:16.941Z,82.4
2023-01-13T07:25:17.488Z,82.4
2023-01-13T07:26:16.986Z,82.4
2023-01-13T07:27:16.474Z,82.5
2023-01-13T07:28:16.971Z,82.4
2023-01-13T07:29:16.471Z,82.3
2023-01-13T07:30:16.993Z,82.2
2023-01-13T07:31:16.659Z,82.2
2023-01-13T07:32:17.197Z,82.0
2023-01-13T07:33:16.693Z,82.1
2023-01-13T07:34:17.238Z,82.4
2023-01-13T07:35:16.762Z,82.2
2023-01-13T07:36:17.266Z,82.2
2023-01-13T07:37:16.774Z,82.0
2023-01-13T07:38:17.291Z,82.1
2023-01-13T07:39:16.810Z,82.0
2023-01-13T07:40:17.322Z,81.9
2023-01-13T07:41:16.833Z,81.9
2023-01-13T07:42:17.373Z,81.7
2023-01-13T07:43:16.910Z,81.7
2023-01-13T07:44:17.419Z,81.6
2023-01-13T07:45:16.916Z,81.6
2023-01-13T07:46:17.425Z,81.7
2023-01-13T07:47:16.923Z,81.6
2023-01-13T07:48:17.427Z,81.6
2023-01-13T07:49:16.973Z,81.6
2023-01-13T07:50:16.525Z,81.5
2023-01-13T07:51:17.070Z,81.5
2023-01-13T07:52:17.475Z,81.6
2023-01-13T07:53:16.978Z,81.6
2023-01-13T07:54:19.290Z,81.8
2023-01-13T07:55:16.861Z,81.7
2023-01-13T07:56:17.404Z,81.7
2023-01-13T07:57:16.922Z,81.7
2023-01-13T07:58:17.434Z,81.8
2023-01-13T07:59:16.971Z,81.8
2023-01-13T08:00:16.490Z,82.0
2023-01-13T08:01:17.207Z,82.1
2023-01-13T08:02:16.988Z,81.9
2023-01-13T08:03:16.659Z,81.8
2023-01-13T08:04:17.157Z,81.9
2023-01-13T08:05:16.699Z,81.8
2023-01-13T08:06:17.227Z,81.9
2023-01-13T08:07:16.732Z,82.1
2023-01-13T08:08:17.266Z,82.1
2023-01-13T08:09:16.814Z,82.2
2023-01-13T08:10:17.363Z,82.3
2023-01-13T08:11:16.872Z,82.3
2023-01-13T08:12:17.011Z,82.2
2023-01-13T08:13:16.517Z,82.1
2023-01-13T08:14:17.010Z,82.2
2023-01-13T08:15:16.513Z,82.3
2023-01-13T08:16:17.115Z,82.3
2023-01-13T08:17:17.072Z,82.2
2023-01-13T08:18:17.270Z,82.3
2023-01-13T08:19:16.763Z,82.2
2023-01-13T08:20:17.366Z,82.2
2023-01-13T08:21:16.911Z,82.2
2023-01-13T08:22:17.309Z,82.1
2023-01-13T08:23:16.893Z,82.1
2023-01-13T08:24:17.463Z,82.3
2023-01-13T08:25:17.002Z,82.1
2023-01-13T08:26:16.537Z,82.2
2023-01-13T08:27:17.020Z,82.1
2023-01-13T08:28:16.609Z,82.3
2023-01-13T08:29:17.088Z,82.1
2023-01-13T08:30:16.608Z,82.1
2023-01-13T08:31:17.528Z,82.0
2023-01-13T08:32:16.643Z,82.0
2023-01-13T08:33:17.196Z,82.1
2023-01-13T08:34:16.695Z,82.1
2023-01-13T08:35:17.221Z,82.3
2023-01-13T08:36:16.744Z,82.4
2023-01-13T08:37:17.243Z,82.3
2023-01-13T08:38:16.761Z,82.5
2023-01-13T08:39:17.262Z,82.3
2023-01-13T08:40:16.803Z,82.2
2023-01-13T08:41:17.316Z,82.2
2023-01-13T08:42:16.684Z,82.3
2023-01-13T08:43:17.194Z,82.5
2023-01-13T08:44:16.733Z,82.7
2023-01-13T08:45:17.248Z,82.8
2023-01-13T08:46:16.838Z,82.9
2023-01-13T08:47:17.435Z,83.3
2023-01-13T08:48:16.915Z,83.9
2023-01-13T08:49:17.441Z,84.2
2023-01-13T08:50:16.956Z,84.7
2023-01-13T08:51:17.483Z,85.6
2023-01-13T08:52:17.364Z,86.2
2023-01-13T08:53:16.908Z,86.5
2023-01-13T08:54:17.413Z,87.0
2023-01-13T08:55:16.958Z,87.1
2023-01-13T08:56:17.435Z,87.8
2023-01-13T08:57:17.248Z,88.0
2023-01-13T08:58:16.810Z,88.3
2023-01-13T08:59:17.346Z,88.8
2023-01-13T09:00:17.327Z,89.3
2023-01-13T09:01:17.044Z,89.4
2023-01-13T09:02:16.930Z,89.3
2023-01-13T09:03:16.534Z,89.3
2023-01-13T09:04:17.139Z,89.8
2023-01-13T09:05:18.041Z,89.8
2023-01-13T09:06:16.539Z,90.4
2023-01-13T09:07:17.041Z,90.6
2023-01-13T09:08:16.581Z,90.7
2023-01-13T09:09:17.106Z,91.3
2023-01-13T09:10:16.636Z,91.4
2023-01-13T09:11:17.158Z,92.1
2023-01-13T09:12:16.612Z,92.3
2023-01-13T09:13:17.170Z,92.9
2023-01-13T09:14:16.720Z,93.0
2023-01-13T09:15:17.218Z,93.4
2023-01-13T09:16:16.813Z,93.7
2023-01-13T09:17:17.325Z,93.9
2023-01-13T09:18:16.816Z,94.1
2023-01-13T09:19:17.349Z,94.3
2023-01-13T09:20:16.900Z,94.5
2023-01-13T09:21:17.417Z,94.8
2023-01-13T09:22:17.023Z,95.0
2023-01-13T09:23:16.579Z,95.6
2023-01-13T09:24:17.195Z,95.3
2023-01-13T09:25:16.728Z,95.5
2023-01-13T09:26:17.236Z,95.6
2023-01-13T09:27:16.784Z,95.5
2023-01-13T09:28:17.322Z,95.5
2023-01-13T09:29:17.091Z,95.9
2023-01-13T09:30:16.711Z,95.9
2023-01-13T09:31:17.392Z,96.1
2023-01-13T09:32:16.578Z,96.2
2023-01-13T09:33:17.072Z,96.3
2023-01-13T09:34:16.595Z,96.2
2023-01-13T09:35:17.132Z,96.4
2023-01-13T09:36:16.634Z,96.6
2023-01-13T09:37:17.121Z,96.5
2023-01-13T09:38:16.726Z,96.4
2023-01-13T09:39:17.243Z,96.3
2023-01-13T09:40:16.743Z,96.4
2023-01-13T09:41:17.270Z,96.5
2023-01-13T09:42:17.031Z,96.6
2023-01-13T09:43:16.562Z,96.8
2023-01-13T09:44:17.056Z,97.5
2023-01-13T09:45:16.550Z,97.8
2023-01-13T09:46:17.100Z,97.4
2023-01-13T09:47:16.621Z,96.9
2023-01-13T09:48:17.177Z,96.7
2023-01-13T09:49:16.697Z,96.6
2023-01-13T09:50:17.209Z,96.7
2023-01-13T09:51:16.841Z,96.6
2023-01-13T09:52:16.748Z,96.6
2023-01-13T09:53:17.220Z,97.0
2023-01-13T09:54:16.764Z,96.9
2023-01-13T09:55:17.306Z,96.7
2023-01-13T09:56:16.909Z,96.6
2023-01-13T09:57:17.426Z,96.7
2023-01-13T09:58:17.020Z,96.7
2023-01-13T09:59:16.556Z,96.9
2023-01-13T10:00:17.080Z,97.0
2023-01-13T10:01:16.691Z,96.9
2023-01-13T10:02:16.927Z,96.7
2023-01-13T10:03:17.663Z,97.2
2023-01-13T10:04:17.303Z,97.3
2023-01-13T10:05:16.852Z,97.2
2023-01-13T10:06:17.388Z,97.3
2023-01-13T10:07:16.884Z,97.4
2023-01-13T10:08:17.407Z,97.4
2023-01-13T10:09:16.908Z,97.2
2023-01-13T10:10:17.458Z,97.3
2023-01-13T10:11:16.974Z,97.4
2023-01-13T10:12:16.922Z,97.2
2023-01-13T10:13:17.428Z,97.2
2023-01-13T10:14:16.995Z,96.9
2023-01-13T10:15:16.511Z,96.9
2023-01-13T10:16:17.158Z,96.8
2023-01-13T10:17:16.645Z,96.9
2023-01-13T10:18:17.174Z,96.8
2023-01-13T10:19:16.669Z,96.9
2023-01-13T10:20:17.186Z,96.8
2023-01-13T10:21:16.722Z,96.6
2023-01-13T10:22:17.020Z,96.5
2023-01-13T10:23:16.522Z,96.3
2023-01-13T10:24:17.063Z,96.3
2023-01-13T10:25:16.564Z,96.2
2023-01-13T10:26:18.240Z,96.4
2023-01-13T10:27:16.799Z,96.2
2023-01-13T10:28:19.616Z,96.3
2023-01-13T10:29:17.261Z,96.4
2023-01-13T10:30:16.822Z,96.3
2023-01-13T10:31:17.458Z,96.5
2023-01-13T10:32:17.030Z,96.4
2023-01-13T10:33:16.534Z,96.2
2023-01-13T10:34:17.052Z,96.1
2023-01-13T10:35:16.544Z,96.2
2023-01-13T10:36:17.052Z,96.3
2023-01-13T10:37:16.538Z,96.3
2023-01-13T10:38:17.109Z,96.3
2023-01-13T10:39:16.610Z,96.4
2023-01-13T10:40:17.119Z,96.5
2023-01-13T10:41:16.593Z,96.7
2023-01-13T10:42:17.202Z,96.9
2023-01-13T10:43:16.718Z,96.8
2023-01-13T10:44:17.200Z,96.6
2023-01-13T10:45:16.717Z,96.9
2023-01-13T10:46:17.384Z,96.9
2023-01-13T10:47:16.947Z,97.4
2023-01-13T10:48:17.474Z,97.3
2023-01-13T10:49:16.980Z,97.3
2023-01-13T10:50:16.512Z,97.3
2023-01-13T10:51:17.012Z,97.3
2023-01-13T10:52:16.533Z,97.2
2023-01-13T10:53:17.083Z,97.1
2023-01-13T10:54:16.598Z,96.9
2023-01-13T10:55:17.085Z,96.5
2023-01-13T10:56:16.579Z,96.6
2023-01-13T10:57:17.100Z,96.2
2023-01-13T10:58:16.594Z,95.8
2023-01-13T10:59:17.089Z,96.0
2023-01-13T11:00:16.611Z,96.1
2023-01-13T11:01:17.370Z,96.1
2023-01-13T11:02:26.899Z,96.4
2023-01-13T11:03:16.674Z,96.3
2023-01-13T11:04:17.216Z,96.1
2023-01-13T11:05:16.714Z,96.0
2023-01-13T11:06:17.188Z,96.5
2023-01-13T11:07:16.730Z,96.7
2023-01-13T11:08:17.463Z,96.6
2023-01-13T11:09:16.975Z,96.2
2023-01-13T11:10:16.561Z,95.8
2023-01-13T11:11:17.057Z,95.8
2023-01-13T11:12:16.756Z,95.3
2023-01-13T11:13:17.265Z,95.1
2023-01-13T11:14:16.779Z,94.3
2023-01-13T11:15:17.287Z,94.5
2023-01-13T11:16:17.063Z,93.9
2023-01-13T11:17:16.594Z,93.2
2023-01-13T11:18:17.185Z,93.8
2023-01-13T11:19:16.716Z,93.7
2023-01-13T11:20:17.318Z,93.3
2023-01-13T11:21:16.810Z,93.4
2023-01-13T11:22:17.421Z,93.6
2023-01-13T11:23:16.926Z,93.2
2023-01-13T11:24:17.425Z,92.7
2023-01-13T11:25:16.938Z,92.4
2023-01-13T11:26:17.420Z,92.1
2023-01-13T11:27:16.934Z,92.0
2023-01-13T11:28:17.449Z,92.7
2023-01-13T11:29:16.935Z,92.8
2023-01-13T11:30:17.469Z,92.3
2023-01-13T11:31:17.115Z,92.1
2023-01-13T11:32:16.884Z,92.0
2023-01-13T11:33:17.421Z,91.5
2023-01-13T11:34:16.919Z,91.5
2023-01-13T11:35:17.419Z,91.7
2023-01-13T11:36:20.765Z,91.7
2023-01-13T11:37:17.433Z,91.5
2023-01-13T11:38:17.015Z,91.6
2023-01-13T11:39:16.585Z,91.9
2023-01-13T11:40:17.074Z,91.6
2023-01-13T11:41:16.564Z,91.3
2023-01-13T11:42:17.195Z,90.3
2023-01-13T11:43:16.736Z,90.4
2023-01-13T11:44:17.268Z,90.4
2023-01-13T11:45:16.843Z,90.0
2023-01-13T11:46:17.544Z,90.4
2023-01-13T11:47:17.071Z,89.3
2023-01-13T11:48:16.739Z,89.5
2023-01-13T11:49:17.315Z,89.9
2023-01-13T11:50:16.803Z,90.0
2023-01-13T11:51:17.318Z,89.9
2023-01-13T11:52:16.692Z,89.7
2023-01-13T11:53:17.221Z,90.0
2023-01-13T11:54:16.717Z,90.4
2023-01-13T11:55:17.222Z,90.2
2023-01-13T11:56:16.753Z,89.5
2023-01-13T11:57:17.369Z,89.7
2023-01-13T11:58:16.912Z,89.5
2023-01-13T11:59:17.409Z,89.7
2023-01-13T12:00:16.909Z,89.9
2023-01-13T12:01:17.547Z,89.8
2023-01-13T12:02:16.752Z,89.4
2023-01-13T12:03:17.480Z,89.4
2023-01-13T12:04:17.073Z,89.1
2023-01-13T12:05:16.616Z,89.3
2023-01-13T12:06:17.137Z,88.9
2023-01-13T12:07:16.669Z,88.8
2023-01-13T12:08:17.198Z,89.0
2023-01-13T12:09:16.730Z,89.6
2023-01-13T12:10:17.225Z,88.9
2023-01-13T12:11:16.817Z,88.9
2023-01-13T12:12:17.392Z,88.6
2023-01-13T12:13:16.915Z,88.9
2023-01-13T12:14:17.512Z,89.1
2023-01-13T12:15:17.100Z,87.4
2023-01-13T12:16:16.726Z,87.2
2023-01-13T12:17:17.203Z,87.3
2023-01-13T12:18:16.714Z,87.9
2023-01-13T12:19:17.231Z,87.7
2023-01-13T12:20:16.755Z,87.3
2023-01-13T12:21:17.249Z,87.5
2023-01-13T12:22:16.732Z,87.4
2023-01-13T12:23:17.226Z,87.8
2023-01-13T12:24:16.765Z,87.6
2023-01-13T12:25:17.280Z,87.6
2023-01-13T12:26:16.800Z,87.9
2023-01-13T12:27:17.587Z,86.9
2023-01-13T12:28:17.257Z,86.3
2023-01-13T12:29:16.805Z,86.4
2023-01-13T12:30:17.304Z,86.6
2023-01-13T12:31:16.899Z,86.8
2023-01-13T12:32:16.846Z,86.6
2023-01-13T12:33:18.954Z,86.5
2023-01-13T12:34:17.494Z,86.9
2023-01-13T12:35:17.022Z,86.5
2023-01-13T12:36:16.546Z,86.7
2023-01-13T12:37:17.119Z,87.1
2023-01-13T12:38:16.641Z,87.3
2023-01-13T12:39:17.163Z,87.2
2023-01-13T12:40:16.685Z,87.6
2023-01-13T12:41:17.176Z,88.0
2023-01-13T12:42:16.510Z,87.9
2023-01-13T12:43:17.002Z,88.1
2023-01-13T12:44:16.495Z,87.8
2023-01-13T12:45:18.751Z,88.4
2023-01-13T12:46:17.368Z,88.5
2023-01-13T12:47:16.968Z,88.9
2023-01-13T12:48:16.510Z,88.6
2023-01-13T12:49:17.014Z,88.8
2023-01-13T12:50:16.516Z,89.0
2023-01-13T12:51:18.427Z,89.0
2023-01-13T12:52:17.374Z,89.0
2023-01-13T12:53:16.902Z,88.9
2023-01-13T12:54:17.390Z,88.4
2023-01-13T12:55:16.921Z,88.7
2023-01-13T12:56:17.400Z,88.7
2023-01-13T12:57:16.910Z,88.5
2023-01-13T12:58:17.402Z,88.4
2023-01-13T12:59:16.948Z,88.2
2023-01-13T13:00:16.495Z,88.2
2023-01-13T13:01:17.315Z,88.5
2023-01-13T13:02:16.841Z,88.2
2023-01-13T13:03:19.668Z,88.1
2023-01-13T13:04:17.251Z,87.7
2023-01-13T13:05:16.857Z,87.7
2023-01-13T13:06:17.395Z,87.8
2023-01-13T13:07:16.904Z,88.1
2023-01-13T13:08:17.405Z,88.4
2023-01-13T13:09:16.903Z,88.3
2023-01-13T13:10:17.438Z,87.9
2023-01-13T13:11:16.996Z,88.5
2023-01-13T13:12:16.497Z,87.9
2023-01-13T13:13:16.984Z,87.6
2023-01-13T13:14:16.533Z,88.1
2023-01-13T13:15:17.224Z,88.6
2023-01-13T13:16:16.814Z,88.4
2023-01-13T13:17:17.309Z,88.6
2023-01-13T13:18:16.919Z,88.9